createdAt,value
2023-03-06T00:00:49.483Z,6.45
2023-03-06T00:03:16.561Z,6.30
2023-03-06T00:05:43.236Z,6.03
2023-03-06T00:08:10.034Z,5.90
2023-03-06T00:10:36.703Z,5.88
2023-03-06T00:13:05.661Z,5.35
2023-03-06T00:15:32.525Z,5.43
2023-03-06T00:17:59.188Z,5.90
2023-03-06T00:20:26.612Z,4.78
2023-03-06T00:22:53.199Z,4.80
2023-03-06T00:25:21.247Z,5.63
2023-03-06T00:27:48.080Z,5.75
2023-03-06T00:30:17.463Z,5.55
2023-03-06T00:32:44.877Z,6.07
2023-03-06T00:35:11.841Z,5.63
2023-03-06T00:37:38.619Z,5.97
2023-03-06T00:40:06.651Z,5.68
2023-03-06T00:42:33.359Z,7.50
2023-03-06T00:44:59.951Z,6.40
2023-03-06T00:47:26.442Z,7.10
2023-03-06T00:49:52.990Z,6.50
2023-03-06T00:52:19.491Z,6.40
2023-03-06T00:54:46.001Z,5.53
2023-03-06T00:57:12.901Z,6.03
2023-03-06T00:59:39.415Z,5.97
2023-03-06T01:02:06.026Z,5.45
2023-03-06T01:04:32.792Z,4.95
2023-03-06T01:06:59.510Z,3.47
2023-03-06T01:09:26.086Z,3.30
2023-03-06T01:11:52.622Z,3.08
2023-03-06T01:14:19.468Z,3.05
2023-03-06T01:16:46.911Z,2.58
2023-03-06T01:19:13.602Z,2.63
2023-03-06T01:21:40.100Z,1.80
2023-03-06T01:24:07.120Z,1.73
2023-03-06T01:26:34.605Z,1.75
2023-03-06T01:29:01.747Z,1.90
2023-03-06T01:31:28.296Z,1.58
2023-03-06T01:33:54.964Z,1.58
2023-03-06T01:36:21.678Z,1.50
2023-03-06T01:38:48.220Z,1.05
2023-03-06T01:41:15.901Z,1.20
2023-03-06T01:43:44.841Z,1.10
2023-03-06T01:49:18.388Z,1.30
2023-03-06T01:52:03.438Z,1.20
2023-03-06T01:54:34.587Z,1.02
2023-03-06T01:57:05.526Z,1.13
2023-03-06T01:59:33.948Z,1.50
2023-03-06T02:02:01.944Z,0.93
2023-03-06T02:04:29.332Z,1.00
2023-03-06T02:06:56.201Z,0.95
2023-03-06T02:09:22.817Z,1.20
2023-03-06T02:11:49.386Z,1.20
2023-03-06T02:14:17.146Z,0.82
2023-03-06T02:16:44.156Z,1.17
2023-03-06T02:19:33.324Z,1.58
2023-03-06T02:22:00.027Z,1.55
2023-03-06T02:24:39.146Z,1.30
2023-03-06T02:27:07.505Z,1.58
2023-03-06T02:29:34.291Z,2.00
2023-03-06T02:32:00.828Z,1.50
2023-03-06T02:34:27.279Z,2.00
2023-03-06T02:37:00.982Z,2.03
2023-03-06T02:39:30.206Z,1.90
2023-03-06T02:41:56.772Z,2.38
2023-03-06T02:44:23.985Z,2.70
2023-03-06T02:46:50.509Z,2.30
2023-03-06T02:49:16.989Z,2.50
2023-03-06T02:51:43.568Z,2.15
2023-03-06T02:54:10.986Z,2.38
2023-03-06T02:56:37.542Z,2.50
2023-03-06T02:59:04.083Z,2.63
2023-03-06T03:01:30.834Z,2.40
2023-03-06T03:03:57.418Z,2.65
2023-03-06T03:06:24.016Z,2.20
2023-03-06T03:08:50.492Z,1.90
2023-03-06T03:11:16.999Z,1.98
2023-03-06T03:13:43.573Z,1.83
2023-03-06T03:16:14.156Z,1.50
2023-03-06T03:18:41.460Z,1.75
2023-03-06T03:21:12.643Z,2.03
2023-03-06T03:23:39.317Z,1.33
2023-03-06T03:26:08.260Z,1.85
2023-03-06T03:28:34.979Z,1.45
2023-03-06T03:31:06.475Z,2.10
2023-03-06T03:33:33.712Z,1.70
2023-03-06T03:36:01.946Z,1.60
2023-03-06T03:38:29.026Z,1.60
2023-03-06T03:40:55.565Z,1.35
2023-03-06T03:43:22.063Z,1.40
2023-03-06T03:45:48.611Z,1.48
2023-03-06T03:48:15.162Z,1.50
2023-03-06T03:50:42.243Z,1.40
2023-03-06T03:53:08.775Z,1.95
2023-03-06T03:55:35.347Z,1.70
2023-03-06T03:58:01.962Z,1.90
2023-03-06T04:00:28.824Z,2.65
2023-03-06T04:02:55.410Z,2.05
2023-03-06T04:05:21.972Z,2.13
2023-03-06T04:07:48.493Z,2.13
2023-03-06T04:10:15.397Z,2.30
2023-03-06T04:12:42.160Z,2.38
2023-03-06T04:15:08.994Z,2.30
2023-03-06T04:17:35.648Z,2.08
2023-03-06T04:20:04.148Z,2.10
2023-03-06T04:22:31.098Z,1.73
2023-03-06T04:24:57.636Z,1.52
2023-03-06T04:27:24.340Z,1.50
2023-03-06T04:29:50.880Z,1.40
2023-03-06T04:32:18.725Z,1.63
2023-03-06T04:34:46.850Z,1.33
2023-03-06T04:37:24.468Z,1.63
2023-03-06T04:39:51.496Z,1.48
2023-03-06T04:42:18.650Z,1.38
2023-03-06T04:44:45.486Z,1.50
2023-03-06T04:47:12.765Z,1.52
2023-03-06T04:49:39.540Z,1.80
2023-03-06T04:52:06.401Z,1.88
2023-03-06T04:54:32.986Z,1.83
2023-03-06T04:56:59.547Z,2.20
2023-03-06T04:59:26.179Z,2.33
2023-03-06T05:01:52.880Z,2.20
2023-03-06T05:04:19.544Z,2.67
2023-03-06T05:06:46.362Z,3.05
2023-03-06T05:09:12.932Z,3.10
2023-03-06T05:11:39.633Z,3.58
2023-03-06T05:14:06.430Z,4.18
2023-03-06T05:16:33.086Z,3.78
2023-03-06T05:18:59.613Z,4.60
2023-03-06T05:21:26.104Z,4.40
2023-03-06T05:23:53.046Z,4.15
2023-03-06T05:26:19.688Z,4.22
2023-03-06T05:28:46.177Z,4.18
2023-03-06T05:31:12.745Z,4.47
2023-03-06T05:33:39.338Z,4.53
2023-03-06T05:36:08.330Z,4.55
2023-03-06T05:38:35.379Z,5.13
2023-03-06T05:41:01.906Z,5.15
2023-03-06T05:43:28.394Z,4.95
2023-03-06T05:46:03.019Z,5.85
2023-03-06T05:48:29.978Z,5.93
2023-03-06T05:51:00.678Z,7.05
2023-03-06T05:53:29.369Z,4.88
2023-03-06T05:56:01.089Z,4.88
2023-03-06T05:58:28.202Z,4.60
2023-03-06T06:00:54.762Z,3.83
2023-03-06T06:03:21.439Z,4.38
2023-03-06T06:05:48.193Z,3.50
2023-03-06T06:08:14.844Z,3.10
2023-03-06T06:10:41.402Z,3.42
2023-03-06T06:13:08.021Z,3.60
2023-03-06T06:15:34.720Z,3.42
2023-03-06T06:18:01.251Z,3.70
2023-03-06T06:20:28.488Z,3.95
2023-03-06T06:22:54.976Z,4.18
2023-03-06T06:25:21.505Z,3.30
2023-03-06T06:27:48.352Z,3.55
2023-03-06T06:30:14.960Z,4.15
2023-03-06T06:32:41.631Z,4.45
2023-03-06T06:35:08.497Z,3.30
2023-03-06T06:37:35.445Z,3.45
2023-03-06T06:40:02.001Z,3.65
2023-03-06T06:42:35.794Z,3.53
2023-03-06T06:45:06.080Z,3.72
2023-03-06T06:47:34.318Z,3.42
2023-03-06T06:50:00.935Z,2.90
2023-03-06T06:52:27.515Z,3.08
2023-03-06T06:54:54.203Z,3.50
2023-03-06T06:57:21.042Z,3.47
2023-03-06T06:59:47.590Z,3.65
2023-03-06T07:02:15.916Z,4.15
2023-03-06T07:05:00.351Z,4.40
2023-03-06T07:07:29.662Z,4.00
2023-03-06T07:09:56.174Z,4.28
2023-03-06T07:12:22.717Z,3.92
2023-03-06T07:14:49.213Z,4.70
2023-03-06T07:17:15.756Z,3.92
2023-03-06T07:19:42.343Z,4.03
2023-03-06T07:22:08.903Z,4.22
2023-03-06T07:24:35.423Z,3.60
2023-03-06T07:27:01.962Z,3.08
2023-03-06T07:29:28.575Z,4.22
2023-03-06T07:31:55.358Z,3.92
2023-03-06T07:34:22.505Z,3.35
2023-03-06T07:36:51.077Z,4.25
2023-03-06T07:39:17.602Z,3.38
2023-03-06T07:41:44.167Z,3.25
2023-03-06T07:44:10.717Z,3.25
2023-03-06T07:46:37.346Z,2.92
2023-03-06T07:49:04.042Z,3.05
2023-03-06T07:51:30.571Z,2.83
2023-03-06T07:53:57.133Z,2.20
2023-03-06T07:56:23.726Z,2.10
2023-03-06T07:58:50.403Z,1.65
2023-03-06T08:01:19.856Z,1.73
2023-03-06T08:03:47.162Z,1.42
2023-03-06T08:06:15.966Z,1.40
2023-03-06T08:08:44.363Z,1.83
2023-03-06T08:11:12.947Z,1.50
2023-03-06T08:16:07.271Z,1.80
2023-03-06T08:18:34.428Z,1.83
2023-03-06T08:21:12.569Z,4.35
2023-03-06T08:23:39.564Z,5.70
2023-03-06T08:26:09.128Z,5.72
2023-03-06T08:28:35.632Z,6.13
2023-03-06T08:31:10.586Z,7.07
2023-03-06T08:33:37.654Z,7.38
2023-03-06T08:36:04.536Z,6.60
2023-03-06T08:38:31.217Z,7.10
2023-03-06T08:40:58.171Z,8.20
2023-03-06T08:43:24.748Z,9.07
2023-03-06T08:45:55.319Z,9.07
2023-03-06T08:48:22.120Z,8.98
2023-03-06T08:50:49.172Z,9.57
2023-03-06T08:53:15.663Z,8.00
2023-03-06T08:55:42.199Z,8.68
2023-03-06T08:58:09.119Z,10.98
2023-03-06T09:00:35.734Z,9.20
2023-03-06T09:03:02.282Z,10.60
2023-03-06T09:05:28.961Z,9.65
2023-03-06T09:07:55.537Z,11.35
2023-03-06T09:10:24.197Z,9.05
2023-03-06T09:15:22.072Z,8.45
2023-03-06T09:17:48.758Z,8.77
2023-03-06T09:20:15.434Z,9.23
2023-03-06T09:22:45.635Z,9.57
2023-03-06T09:25:20.348Z,9.35
2023-03-06T09:27:55.480Z,9.15
2023-03-06T09:30:28.717Z,9.35
2023-03-06T09:32:55.277Z,8.77
2023-03-06T09:35:21.833Z,8.25
2023-03-06T09:37:48.391Z,7.65
2023-03-06T09:40:19.696Z,7.65
2023-03-06T09:42:46.254Z,6.18
2023-03-06T09:45:13.468Z,6.32
2023-03-06T09:47:53.554Z,6.20
2023-03-06T09:50:44.822Z,5.55
2023-03-06T09:53:26.475Z,5.00
2023-03-06T09:56:06.370Z,5.45
2023-03-06T09:58:40.028Z,5.10
2023-03-06T10:01:17.888Z,4.95
2023-03-06T10:03:59.677Z,4.45
2023-03-06T10:06:32.481Z,4.30
2023-03-06T10:09:05.747Z,4.93
2023-03-06T10:11:48.392Z,4.97
2023-03-06T10:14:48.934Z,3.85
2023-03-06T10:17:22.491Z,3.92
2023-03-06T10:19:49.406Z,3.65
2023-03-06T10:22:33.103Z,3.47
2023-03-06T10:25:14.881Z,4.70
2023-03-06T10:27:50.485Z,3.75
2023-03-06T10:30:43.294Z,4.38
2023-03-06T10:33:36.673Z,3.92
2023-03-06T10:36:04.580Z,4.47
2023-03-06T10:38:31.209Z,4.95
2023-03-06T10:41:07.146Z,5.47
2023-03-06T10:43:36.384Z,5.55
2023-03-06T10:46:03.496Z,5.50
2023-03-06T10:48:30.948Z,5.95
2023-03-06T10:51:19.400Z,5.95
2023-03-06T10:53:50.120Z,5.88
2023-03-06T10:56:31.698Z,5.90
2023-03-06T10:59:26.523Z,6.43
2023-03-06T11:01:55.415Z,5.70
2023-03-06T11:04:27.939Z,4.95
2023-03-06T11:07:14.794Z,5.53
2023-03-06T11:09:56.551Z,4.53
2023-03-06T11:12:23.198Z,5.20
2023-03-06T11:15:08.322Z,5.15
2023-03-06T11:17:52.973Z,5.35
2023-03-06T11:20:27.198Z,5.63
2023-03-06T11:23:31.227Z,5.38
2023-03-06T11:26:01.267Z,4.72
2023-03-06T11:28:34.914Z,4.82
2023-03-06T11:31:09.472Z,4.22
2023-03-06T11:33:54.154Z,4.20
2023-03-06T11:36:56.464Z,3.92
2023-03-06T11:39:37.946Z,4.10
2023-03-06T11:42:27.000Z,4.10
2023-03-06T11:45:03.142Z,3.90
2023-03-06T11:47:35.336Z,4.75
2023-03-06T11:50:36.087Z,4.80
2023-03-06T11:58:21.274Z,5.63
2023-03-06T12:00:53.185Z,5.35
2023-03-06T12:03:19.666Z,5.95
2023-03-06T12:06:06.093Z,6.38
2023-03-06T12:08:54.104Z,6.00
2023-03-06T12:11:23.936Z,5.47
2023-03-06T12:14:02.141Z,5.40
2023-03-06T12:16:58.659Z,5.38
2023-03-06T12:19:57.552Z,5.07
2023-03-06T12:22:36.630Z,4.68
2023-03-06T12:25:06.052Z,5.03
2023-03-06T12:27:58.966Z,6.03
2023-03-06T12:30:46.896Z,4.97
2023-03-06T12:33:24.586Z,5.38
2023-03-06T12:35:51.298Z,5.80
2023-03-06T12:39:00.231Z,5.55
2023-03-06T12:41:45.551Z,5.68
2023-03-06T12:44:21.764Z,6.13
2023-03-06T12:46:58.343Z,5.75
2023-03-06T12:49:32.700Z,5.75
2023-03-06T12:52:01.181Z,5.97
2023-03-06T12:54:29.862Z,5.43
2023-03-06T12:56:57.561Z,6.22
2023-03-06T12:59:44.062Z,5.95
2023-03-06T13:02:21.522Z,5.90
2023-03-06T13:05:13.063Z,6.97
2023-03-06T13:07:52.682Z,6.60
2023-03-06T13:10:28.272Z,7.18
2023-03-06T13:12:57.708Z,7.53
2023-03-06T13:15:44.026Z,6.70
2023-03-06T13:18:22.575Z,6.97
2023-03-06T13:20:50.787Z,7.10
2023-03-06T13:23:29.318Z,6.90
2023-03-06T13:25:57.438Z,8.07
2023-03-06T13:28:46.143Z,7.25
2023-03-06T13:31:26.348Z,7.70
2023-03-06T13:33:56.590Z,8.15
2023-03-06T13:36:30.847Z,9.10
2023-03-06T13:39:02.389Z,9.07
2023-03-06T13:41:31.700Z,9.73
2023-03-06T13:44:03.011Z,9.48
2023-03-06T13:46:35.600Z,10.07
2023-03-06T13:49:07.955Z,11.10
2023-03-06T13:51:37.469Z,11.95
2023-03-06T13:54:12.207Z,12.18
2023-03-06T13:57:03.532Z,11.45
2023-03-06T13:59:50.516Z,11.55
2023-03-06T14:02:48.836Z,12.48
2023-03-06T14:05:17.095Z,11.70
2023-03-06T14:07:46.058Z,11.30
2023-03-06T14:10:23.263Z,10.45
2023-03-06T14:12:49.748Z,10.63
2023-03-06T14:15:46.169Z,9.98
2023-03-06T14:18:12.622Z,9.27
2023-03-06T14:20:39.174Z,9.38
2023-03-06T14:23:28.510Z,9.23
2023-03-06T14:26:33.472Z,9.77
2023-03-06T14:29:01.755Z,10.82
2023-03-06T14:31:28.298Z,10.15
2023-03-06T14:34:01.916Z,10.50
2023-03-06T14:36:50.786Z,6.65
2023-03-06T14:39:24.920Z,6.22
2023-03-06T14:41:51.500Z,4.32
2023-03-06T14:44:23.529Z,4.43
2023-03-06T14:46:57.841Z,3.30
2023-03-06T14:49:25.916Z,2.95
2023-03-06T14:51:57.014Z,3.03
2023-03-06T14:54:29.495Z,2.72
2023-03-06T14:57:01.272Z,3.50
2023-03-06T14:59:29.774Z,2.33
2023-03-06T15:01:59.428Z,2.38
2023-03-06T15:04:36.818Z,3.00
2023-03-06T15:07:07.206Z,3.70
2023-03-06T15:09:36.207Z,3.85
2023-03-06T15:12:05.355Z,5.35
2023-03-06T15:14:36.376Z,5.97
2023-03-06T15:17:21.914Z,8.00
2023-03-06T15:19:50.364Z,8.00
2023-03-06T15:22:41.379Z,8.25
2023-03-06T15:25:17.046Z,8.85
2023-03-06T15:27:49.788Z,8.65
2023-03-06T15:30:28.960Z,8.15
2023-03-06T15:33:18.271Z,9.85
2023-03-06T15:36:02.002Z,8.98
2023-03-06T15:38:44.683Z,8.98
2023-03-06T15:41:34.059Z,7.28
2023-03-06T15:44:02.768Z,8.63
2023-03-06T15:49:07.394Z,8.20
2023-03-06T15:51:33.913Z,9.35
2023-03-06T15:54:11.181Z,9.68
2023-03-06T15:56:43.354Z,9.52
2023-03-06T15:59:32.935Z,9.75
2023-03-06T16:02:07.398Z,10.18
2023-03-06T16:04:33.979Z,9.95
2023-03-06T16:07:00.517Z,11.50
2023-03-06T16:09:27.053Z,11.63
2023-03-06T16:11:54.023Z,12.10
2023-03-06T16:14:23.638Z,13.18
2023-03-06T16:16:52.354Z,11.90
2023-03-06T16:21:55.584Z,12.25
2023-03-06T16:24:22.269Z,13.60
2023-03-06T16:26:50.943Z,14.45
2023-03-06T16:31:51.369Z,13.35
2023-03-06T16:34:19.880Z,13.88
2023-03-06T16:36:48.505Z,15.35
2023-03-06T16:39:19.966Z,15.15
2023-03-06T16:41:47.156Z,14.82
2023-03-06T16:44:13.752Z,13.93
2023-03-06T16:46:42.732Z,14.32
2023-03-06T16:49:15.832Z,15.20
2023-03-06T16:51:42.359Z,15.27
2023-03-06T16:54:08.864Z,15.75
2023-03-06T16:56:35.444Z,14.73
2023-03-06T16:59:01.977Z,16.17
2023-03-06T17:01:28.583Z,15.25
2023-03-06T17:03:55.277Z,15.48
2023-03-06T17:06:22.728Z,15.40
2023-03-06T17:08:50.272Z,16.50
2023-03-06T17:11:17.840Z,16.02
2023-03-06T17:13:44.385Z,15.10
2023-03-06T17:16:16.079Z,16.58
2023-03-06T17:18:43.975Z,16.58
2023-03-06T17:21:10.909Z,14.85
2023-03-06T17:23:37.627Z,16.63
2023-03-06T17:26:07.824Z,17.08
2023-03-06T17:28:35.772Z,16.83
2023-03-06T17:31:03.458Z,16.40
2023-03-06T17:33:30.157Z,17.80
2023-03-06T17:36:00.922Z,17.25
2023-03-06T17:38:28.041Z,19.20
2023-03-06T17:40:54.727Z,16.95
2023-03-06T17:43:21.972Z,17.58
2023-03-06T17:45:48.515Z,16.92
2023-03-06T17:48:15.056Z,17.20
2023-03-06T17:50:41.659Z,16.38
2023-03-06T17:53:08.221Z,19.48
2023-03-06T17:55:34.749Z,18.67
2023-03-06T17:58:01.295Z,19.17
2023-03-06T18:00:27.826Z,19.45
2023-03-06T18:02:54.344Z,18.65
2023-03-06T18:05:21.872Z,18.60
2023-03-06T18:07:48.690Z,20.23
2023-03-06T18:10:15.399Z,18.98
2023-03-06T18:12:41.997Z,18.10
2023-03-06T18:15:09.099Z,18.55
2023-03-06T18:17:35.731Z,18.33
2023-03-06T18:20:02.254Z,17.02
2023-03-06T18:22:28.912Z,17.92
2023-03-06T18:24:55.483Z,19.63
2023-03-06T18:27:22.077Z,18.55
2023-03-06T18:29:48.631Z,16.88
2023-03-06T18:32:15.196Z,19.35
2023-03-06T18:34:41.747Z,17.55
2023-03-06T18:37:08.251Z,18.55
2023-03-06T18:39:34.804Z,17.50
2023-03-06T18:42:01.414Z,16.85
2023-03-06T18:44:27.928Z,17.15
2023-03-06T18:46:54.439Z,16.70
2023-03-06T18:49:21.059Z,16.25
2023-03-06T18:51:50.076Z,19.25
2023-03-06T18:54:17.732Z,17.20
2023-03-06T18:56:44.658Z,17.38
2023-03-06T18:59:17.600Z,18.02
2023-03-06T19:01:46.508Z,19.10
2023-03-06T19:04:13.412Z,19.52
2023-03-06T19:06:40.281Z,17.05
2023-03-06T19:09:07.442Z,16.95
2023-03-06T19:11:34.201Z,16.02
2023-03-06T19:14:00.974Z,16.73
2023-03-06T19:16:29.160Z,15.38
2023-03-06T19:18:56.192Z,14.43
2023-03-06T19:21:24.499Z,13.85
2023-03-06T19:23:51.131Z,10.55
2023-03-06T19:26:21.428Z,10.52
2023-03-06T19:28:48.340Z,6.97
2023-03-06T19:31:26.947Z,5.97
2023-03-06T19:33:54.924Z,4.72
2023-03-06T19:36:27.448Z,3.70
2023-03-06T19:38:58.253Z,4.22
2023-03-06T19:41:25.601Z,3.35
2023-03-06T19:43:54.442Z,3.67
2023-03-06T19:46:21.937Z,3.75
2023-03-06T19:48:48.506Z,3.58
2023-03-06T19:51:15.109Z,3.40
2023-03-06T19:53:42.037Z,3.10
2023-03-06T19:56:20.996Z,3.53
2023-03-06T19:58:47.790Z,3.15
2023-03-06T20:01:17.745Z,3.20
2023-03-06T20:03:44.572Z,2.72
2023-03-06T20:06:17.450Z,2.75
2023-03-06T20:08:44.982Z,2.30
2023-03-06T20:11:16.530Z,2.15
2023-03-06T20:13:47.302Z,2.03
2023-03-06T20:16:14.766Z,2.53
2023-03-06T20:18:41.525Z,2.22
2023-03-06T20:21:08.108Z,2.55
2023-03-06T20:23:35.059Z,3.30
2023-03-06T20:26:06.459Z,2.53
2023-03-06T20:28:33.855Z,2.55
2023-03-06T20:31:06.522Z,3.08
2023-03-06T20:33:33.285Z,2.60
2023-03-06T20:35:59.844Z,2.78
2023-03-06T20:38:26.652Z,3.08
2023-03-06T20:40:57.816Z,3.25
2023-03-06T20:43:24.357Z,3.00
2023-03-06T20:45:57.935Z,2.83
2023-03-06T20:48:24.556Z,3.33
2023-03-06T20:51:05.692Z,3.88
2023-03-06T20:53:34.272Z,4.38
2023-03-06T20:56:01.221Z,4.53
2023-03-06T20:58:30.129Z,4.38
2023-03-06T21:00:57.132Z,6.18
2023-03-06T21:03:24.316Z,4.88
2023-03-06T21:05:50.901Z,3.78
2023-03-06T21:08:17.392Z,3.28
2023-03-06T21:10:47.242Z,2.22
2023-03-06T21:13:14.451Z,2.20
2023-03-06T21:15:42.367Z,1.98
2023-03-06T21:18:09.193Z,2.28
2023-03-06T21:20:38.419Z,4.30
2023-03-06T21:23:05.323Z,3.17
2023-03-06T21:25:32.000Z,3.17
2023-03-06T21:28:00.139Z,3.03
2023-03-06T21:30:27.778Z,2.75
2023-03-06T21:32:54.556Z,2.72
2023-03-06T21:35:21.625Z,2.63
2023-03-06T21:37:48.153Z,2.90
2023-03-06T21:40:15.353Z,3.40
2023-03-06T21:42:41.851Z,2.92
2023-03-06T21:45:08.943Z,3.90
2023-03-06T21:47:38.979Z,3.67
2023-03-06T21:50:07.359Z,3.95
2023-03-06T21:52:33.910Z,3.78
2023-03-06T21:55:00.553Z,4.40
2023-03-06T21:57:27.147Z,4.50
2023-03-06T21:59:53.699Z,4.72
2023-03-06T22:02:20.290Z,4.63
2023-03-06T22:04:51.234Z,4.88
2023-03-06T22:07:18.059Z,5.05
2023-03-06T22:09:44.701Z,4.10
2023-03-06T22:12:11.540Z,2.95
2023-03-06T22:14:38.131Z,2.92
2023-03-06T22:17:04.714Z,2.38
2023-03-06T22:19:31.211Z,3.70
2023-03-06T22:21:57.723Z,1.92
2023-03-06T22:24:24.254Z,1.70
2023-03-06T22:26:50.868Z,1.75
2023-03-06T22:29:17.344Z,1.42
2023-03-06T22:31:43.903Z,0.85
2023-03-06T22:34:10.548Z,0.80
2023-03-06T22:36:37.263Z,1.02
2023-03-06T22:39:04.441Z,0.90
2023-03-06T22:41:31.023Z,1.38
2023-03-06T22:43:58.918Z,1.40
2023-03-06T22:46:26.085Z,1.65
2023-03-06T22:48:52.654Z,1.75
2023-03-06T22:51:20.492Z,1.77
2023-03-06T22:53:47.784Z,2.95
2023-03-06T22:56:20.413Z,1.90
2023-03-06T22:58:47.422Z,2.35
2023-03-06T23:01:19.242Z,2.35
2023-03-06T23:03:47.757Z,2.78
2023-03-06T23:06:21.788Z,2.10
2023-03-06T23:08:51.223Z,2.53
2023-03-06T23:11:19.739Z,2.45
2023-03-06T23:13:46.416Z,2.85
2023-03-06T23:16:13.270Z,3.05
2023-03-06T23:18:40.596Z,2.47
2023-03-06T23:21:11.133Z,2.88
2023-03-06T23:23:38.204Z,2.80
2023-03-06T23:26:08.765Z,2.08
2023-03-06T23:28:35.301Z,2.78
2023-03-06T23:31:09.273Z,2.33
2023-03-06T23:33:36.898Z,2.75
2023-03-06T23:36:05.725Z,2.45
2023-03-06T23:38:32.658Z,2.78
2023-03-06T23:41:04.335Z,2.75
2023-03-06T23:43:31.771Z,2.17
2023-03-06T23:45:58.491Z,2.35
2023-03-06T23:48:27.790Z,3.00
2023-03-06T23:50:54.461Z,2.42
2023-03-06T23:53:21.628Z,2.92
2023-03-06T23:55:49.647Z,3.25
2023-03-06T23:58:17.679Z,3.13
